createdAt,value
2016-02-18T00:00:36.858Z,79.68
2016-02-18T00:01:36.860Z,79.39
2016-02-18T00:02:36.847Z,79.21
2016-02-18T00:03:36.849Z,79.21
2016-02-18T00:04:36.685Z,78.83
2016-02-18T00:05:36.828Z,79.58
2016-02-18T00:06:36.831Z,79.3
2016-02-18T00:07:36.834Z,79.21
2016-02-18T00:08:36.820Z,79.39
2016-02-18T00:09:36.823Z,78.92
2016-02-18T00:10:36.810Z,79.21
2016-02-18T00:11:36.798Z,79.39
2016-02-18T00:12:36.815Z,79.3
2016-02-18T00:13:36.802Z,79.21
2016-02-18T00:14:36.790Z,79.39
2016-02-18T00:15:36.808Z,79.49
2016-02-18T00:16:36.779Z,79.77
2016-02-18T00:17:36.798Z,79.77
2016-02-18T00:18:36.769Z,79.77
2016-02-18T00:19:36.755Z,79.77
2016-02-18T00:20:36.759Z,79.39
2016-02-18T00:21:36.761Z,79.77
2016-02-18T00:22:36.764Z,79.77
2016-02-18T00:23:36.751Z,80.25
2016-02-18T00:24:36.754Z,79.96
2016-02-18T00:25:36.757Z,79.77
2016-02-18T00:26:36.759Z,79.68
2016-02-18T00:27:36.746Z,79.39
2016-02-18T00:28:36.733Z,78.83
2016-02-18T00:29:36.735Z,79.3
2016-02-18T00:30:36.724Z,78.83
2016-02-18T00:31:36.726Z,79.49
2016-02-18T00:32:36.713Z,79.49
2016-02-18T00:33:36.715Z,78.73
2016-02-18T00:34:36.718Z,79.02
2016-02-18T00:35:36.705Z,79.3
2016-02-18T00:36:36.697Z,79.39
2016-02-18T00:37:36.700Z,79.39
2016-02-18T00:38:36.687Z,79.3
2016-02-18T00:39:36.689Z,79.3
2016-02-18T00:40:36.676Z,79.21
2016-02-18T00:41:36.679Z,78.64
2016-02-18T00:42:36.681Z,79.02
2016-02-18T00:43:36.670Z,79.11
2016-02-18T00:44:36.672Z,78.64
2016-02-18T00:45:36.690Z,78.73
2016-02-18T00:46:36.661Z,78.16
2016-02-18T00:47:36.664Z,78.64
2016-02-18T00:48:36.652Z,77.78
2016-02-18T00:49:36.669Z,77.97
2016-02-18T00:50:36.657Z,78.26
2016-02-18T00:51:36.643Z,78.07
2016-02-18T00:52:36.646Z,78.45
2016-02-18T00:53:36.650Z,77.78
2016-02-18T00:54:36.636Z,78.26
2016-02-18T00:55:36.639Z,78.16
2016-02-18T00:56:36.673Z,78.83
2016-02-18T00:57:36.629Z,78.64
2016-02-18T00:58:36.631Z,78.64
2016-02-18T00:59:36.665Z,78.92
2016-02-18T01:00:36.621Z,78.73
2016-02-18T01:01:36.624Z,79.21
2016-02-18T01:02:36.595Z,79.39
2016-02-18T01:03:36.614Z,79.49
2016-02-18T01:04:36.616Z,79.68
2016-02-18T01:05:36.604Z,79.96
2016-02-18T01:06:36.590Z,79.96
2016-02-18T01:07:36.582Z,79.68
2016-02-18T01:08:36.617Z,79.3
2016-02-18T01:09:36.587Z,79.02
2016-02-18T01:10:36.575Z,79.11
2016-02-18T01:11:36.578Z,79.11
2016-02-18T01:12:36.580Z,79.02
2016-02-18T01:13:36.567Z,78.83
2016-02-18T01:14:36.570Z,78.73
2016-02-18T01:15:36.557Z,79.02
2016-02-18T01:16:36.560Z,79.02
2016-02-18T01:17:36.563Z,79.49
2016-02-18T01:18:36.550Z,79.02
2016-02-18T01:19:36.536Z,79.21
2016-02-18T01:20:36.539Z,79.11
2016-02-18T01:21:36.558Z,79.21
2016-02-18T01:22:36.529Z,79.21
2016-02-18T01:23:36.532Z,79.21
2016-02-18T01:24:36.535Z,79.02
2016-02-18T01:25:36.521Z,78.73
2016-02-18T01:26:36.523Z,79.49
2016-02-18T01:27:36.526Z,79.11
2016-02-18T01:28:36.513Z,78.73
2016-02-18T01:29:36.516Z,78.92
2016-02-18T01:30:36.504Z,79.11
2016-02-18T01:31:36.506Z,79.02
2016-02-18T01:32:36.509Z,79.02
2016-02-18T01:33:36.495Z,79.02
2016-02-18T01:34:36.499Z,79.21
2016-02-18T01:35:36.486Z,78.92
2016-02-18T01:36:36.472Z,79.21
2016-02-18T01:37:36.491Z,78.92
2016-02-18T01:38:36.478Z,78.83
2016-02-18T01:39:36.481Z,79.39
2016-02-18T01:40:36.484Z,79.11
2016-02-18T01:41:36.470Z,79.21
2016-02-18T01:42:36.458Z,79.3
2016-02-18T01:43:36.475Z,79.3
2016-02-18T01:44:36.448Z,79.21
2016-02-18T01:45:36.450Z,79.02
2016-02-18T01:46:36.468Z,79.21
2016-02-18T01:47:36.439Z,78.92
2016-02-18T01:48:36.442Z,79.21
2016-02-18T01:49:36.430Z,79.21
2016-02-18T01:50:36.448Z,79.02
2016-02-18T01:51:36.435Z,78.92
2016-02-18T01:52:36.422Z,79.68
2016-02-18T01:53:36.424Z,79.3
2016-02-18T01:54:36.428Z,79.02
2016-02-18T01:55:36.415Z,79.21
2016-02-18T01:56:36.417Z,79.21
2016-02-18T01:57:36.404Z,79.49
2016-02-18T01:58:36.391Z,79.02
2016-02-18T01:59:36.393Z,79.21
2016-02-18T02:00:36.381Z,79.21
2016-02-18T02:01:36.382Z,79.02
2016-02-18T02:02:36.372Z,78.83
2016-02-18T02:03:36.346Z,79.21
2016-02-18T02:04:36.335Z,78.83
2016-02-18T02:05:36.326Z,79.21
2016-02-18T02:06:36.301Z,78.64
2016-02-18T02:07:36.300Z,79.11
2016-02-18T02:08:36.283Z,79.3
2016-02-18T02:09:36.264Z,79.02
2016-02-18T02:10:36.279Z,78.92
2016-02-18T02:11:36.277Z,79.49
2016-02-18T02:12:36.247Z,78.73
2016-02-18T02:13:36.249Z,79.02
2016-02-18T02:14:36.234Z,78.45
2016-02-18T02:15:36.235Z,78.92
2016-02-18T02:16:36.237Z,79.3
2016-02-18T02:17:36.238Z,79.39
2016-02-18T02:18:36.241Z,78.92
2016-02-18T02:19:36.242Z,79.11
2016-02-18T02:20:36.213Z,79.39
2016-02-18T02:21:36.215Z,79.02
2016-02-18T02:22:36.218Z,79.11
2016-02-18T02:23:36.205Z,79.3
2016-02-18T02:24:36.191Z,79.39
2016-02-18T02:25:36.194Z,78.83
2016-02-18T02:26:36.182Z,79.39
2016-02-18T02:27:36.184Z,79.21
2016-02-18T02:28:36.187Z,79.21
2016-02-18T02:29:36.174Z,79.11
2016-02-18T02:30:36.176Z,79.21
2016-02-18T02:31:36.179Z,79.3
2016-02-18T02:32:36.167Z,79.11
2016-02-18T02:33:36.184Z,78.83
2016-02-18T02:34:36.157Z,79.11
2016-02-18T02:35:36.143Z,79.49
2016-02-18T02:36:36.146Z,79.11
2016-02-18T02:37:36.148Z,78.45
2016-02-18T02:38:36.151Z,78.35
2016-02-18T02:39:35.998Z,78.83
2016-02-18T02:40:36.126Z,78.83
2016-02-18T02:41:36.128Z,78.83
2016-02-18T02:42:36.131Z,78.92
2016-02-18T02:43:36.117Z,79.77
2016-02-18T02:44:36.120Z,79.11
2016-02-18T02:45:36.123Z,78.92
2016-02-18T02:46:36.110Z,79.02
2016-02-18T02:47:36.097Z,79.49
2016-02-18T02:48:36.116Z,78.92
2016-02-18T02:49:36.103Z,79.11
2016-02-18T02:50:36.090Z,78.92
2016-02-18T02:51:36.093Z,79.3
2016-02-18T02:52:36.079Z,79.68
2016-02-18T02:53:36.082Z,79.58
2016-02-18T02:54:36.085Z,80.06
2016-02-18T02:55:36.072Z,79.3
2016-02-18T02:56:36.060Z,79.87
2016-02-18T02:57:35.937Z,79.77
2016-02-18T02:58:36.049Z,79.21
2016-02-18T02:59:36.052Z,79.68
2016-02-18T03:00:36.055Z,79.87
2016-02-18T03:01:36.041Z,79.77
2016-02-18T03:02:36.044Z,79.77
2016-02-18T03:03:36.047Z,79.96
2016-02-18T03:04:36.034Z,79.87
2016-02-18T03:05:36.021Z,79.96
2016-02-18T03:06:36.024Z,80.06
2016-02-18T03:07:36.027Z,80.25
2016-02-18T03:08:36.014Z,80.06
2016-02-18T03:09:36.048Z,79.77
2016-02-18T03:10:36.004Z,80.25
2016-02-18T03:11:36.022Z,80.44
2016-02-18T03:12:35.992Z,79.87
2016-02-18T03:13:35.995Z,80.06
2016-02-18T03:14:35.998Z,79.96
2016-02-18T03:15:35.986Z,80.06
2016-02-18T03:16:35.988Z,79.77
2016-02-18T03:17:35.991Z,80.06
2016-02-18T03:18:35.977Z,79.87
2016-02-18T03:19:35.980Z,79.96
2016-02-18T03:20:48.717Z,80.15
2016-02-18T03:21:35.970Z,80.82
2016-02-18T03:22:35.958Z,79.87
2016-02-18T03:23:35.960Z,79.96
2016-02-18T03:24:35.947Z,79.87
2016-02-18T03:25:35.950Z,79.96
2016-02-18T03:26:35.952Z,79.77
2016-02-18T03:27:35.955Z,79.77
2016-02-18T03:28:35.943Z,79.87
2016-02-18T03:29:35.930Z,79.96
2016-02-18T03:30:35.933Z,80.34
2016-02-18T03:31:35.919Z,80.06
2016-02-18T03:32:35.922Z,80.53
2016-02-18T03:33:35.925Z,80.44
2016-02-18T03:34:35.912Z,80.25
2016-02-18T03:35:35.899Z,80.25
2016-02-18T03:36:35.902Z,80.06
2016-02-18T03:37:35.904Z,79.77
2016-02-18T03:38:35.891Z,80.25
2016-02-18T03:39:35.894Z,80.34
2016-02-18T03:40:35.897Z,80.34
2016-02-18T03:41:35.882Z,80.44
2016-02-18T03:42:35.868Z,80.06
2016-02-18T03:43:35.856Z,80.06
2016-02-18T03:44:35.858Z,80.06
2016-02-18T03:45:35.861Z,80.72
2016-02-18T03:46:35.848Z,80.63
2016-02-18T03:47:35.867Z,80.63
2016-02-18T03:48:35.853Z,80.06
2016-02-18T03:49:35.856Z,80.06
2016-02-18T03:50:35.842Z,79.96
2016-02-18T03:51:35.830Z,80.15
2016-02-18T03:52:35.832Z,80.06
2016-02-18T03:53:35.836Z,80.15
2016-02-18T03:54:35.806Z,79.96
2016-02-18T03:55:35.809Z,79.96
2016-02-18T03:56:35.812Z,80.06
2016-02-18T03:57:35.814Z,79.96
2016-02-18T03:58:35.817Z,80.06
2016-02-18T03:59:35.804Z,79.96
2016-02-18T04:00:35.791Z,79.96
2016-02-18T04:01:35.794Z,79.87
2016-02-18T04:02:35.781Z,80.06
2016-02-18T04:03:35.799Z,79.49
2016-02-18T04:04:35.819Z,79.77
2016-02-18T04:05:35.774Z,79.49
2016-02-18T04:06:35.761Z,79.68
2016-02-18T04:07:35.764Z,79.49
2016-02-18T04:08:35.767Z,79.39
2016-02-18T04:09:35.769Z,79.49
2016-02-18T04:10:35.757Z,79.21
2016-02-18T04:11:35.760Z,79.39
2016-02-18T04:12:35.763Z,79.68
2016-02-18T04:13:35.749Z,79.39
2016-02-18T04:14:35.736Z,79.39
2016-02-18T04:15:35.738Z,79.21
2016-02-18T04:16:35.726Z,79.39
2016-02-18T04:17:35.728Z,78.92
2016-02-18T04:18:35.732Z,79.21
2016-02-18T04:19:35.719Z,79.21
2016-02-18T04:20:35.721Z,78.83
2016-02-18T04:21:35.709Z,79.39
2016-02-18T04:22:35.711Z,79.3
2016-02-18T04:23:35.714Z,79.3
2016-02-18T04:24:35.716Z,79.39
2016-02-18T04:25:35.687Z,79.21
2016-02-18T04:26:35.690Z,79.21
2016-02-18T04:27:35.693Z,79.39
2016-02-18T04:28:35.681Z,79.11
2016-02-18T04:29:35.698Z,78.83
2016-02-18T04:30:35.686Z,79.3
2016-02-18T04:31:35.672Z,79.11
2016-02-18T04:32:35.675Z,78.92
2016-02-18T04:33:35.661Z,79.3
2016-02-18T04:34:35.665Z,79.49
2016-02-18T04:35:35.668Z,79.49
2016-02-18T04:36:35.655Z,79.3
2016-02-18T04:37:35.673Z,79.68
2016-02-18T04:38:35.644Z,79.39
2016-02-18T04:39:35.647Z,79.21
2016-02-18T04:40:35.649Z,79.58
2016-02-18T04:41:35.652Z,79.87
2016-02-18T04:42:35.641Z,79.87
2016-02-18T04:43:35.642Z,79.68
2016-02-18T04:44:35.630Z,79.39
2016-02-18T04:45:35.649Z,79.39
2016-02-18T04:46:35.635Z,79.49
2016-02-18T04:47:35.637Z,79.39
2016-02-18T04:48:35.624Z,79.3
2016-02-18T04:49:35.612Z,79.49
2016-02-18T04:50:35.645Z,79.49
2016-02-18T04:51:35.601Z,79.21
2016-02-18T04:52:35.604Z,79.3
2016-02-18T04:53:35.607Z,79.21
2016-02-18T04:54:35.594Z,79.3
2016-02-18T04:55:35.596Z,79.3
2016-02-18T04:56:35.599Z,78.64
2016-02-18T04:57:35.586Z,79.02
2016-02-18T04:58:35.589Z,78.83
2016-02-18T04:59:35.575Z,79.77
2016-02-18T05:00:35.578Z,78.92
2016-02-18T05:01:35.598Z,79.21
2016-02-18T05:02:35.584Z,79.02
2016-02-18T05:03:35.618Z,78.92
2016-02-18T05:04:35.621Z,79.11
2016-02-18T05:05:35.986Z,78.54
2016-02-18T05:06:35.567Z,79.02
2016-02-18T05:07:35.553Z,78.64
2016-02-18T05:08:35.540Z,78.64
2016-02-18T05:09:35.558Z,78.73
2016-02-18T05:10:35.547Z,78.83
2016-02-18T05:11:35.533Z,78.73
2016-02-18T05:12:35.552Z,78.83
2016-02-18T05:13:35.539Z,78.26
2016-02-18T05:14:35.530Z,78.35
2016-02-18T05:15:35.533Z,78.45
2016-02-18T05:16:35.520Z,78.26
2016-02-18T05:17:35.523Z,78.45
2016-02-18T05:18:35.509Z,78.35
2016-02-18T05:19:35.529Z,78.73
2016-02-18T05:20:35.516Z,78.64
2016-02-18T05:21:35.518Z,78.35
2016-02-18T05:22:35.521Z,78.45
2016-02-18T05:23:35.507Z,78.26
2016-02-18T05:24:35.510Z,78.16
2016-02-18T05:25:35.497Z,78.35
2016-02-18T05:26:35.500Z,78.45
2016-02-18T05:27:35.503Z,78.26
2016-02-18T05:28:35.506Z,78.07
2016-02-18T05:29:35.493Z,78.16
2016-02-18T05:30:35.480Z,77.97
2016-02-18T05:31:35.498Z,77.88
2016-02-18T05:32:35.485Z,77.78
2016-02-18T05:33:35.488Z,77.88
2016-02-18T05:34:35.458Z,77.97
2016-02-18T05:35:35.461Z,77.59
2016-02-18T05:36:35.465Z,77.59
2016-02-18T05:37:35.499Z,77.78
2016-02-18T05:38:35.455Z,77.59
2016-02-18T05:39:35.457Z,77.22
2016-02-18T05:40:35.444Z,77.88
2016-02-18T05:41:35.463Z,77.59
2016-02-18T05:42:35.449Z,78.07
2016-02-18T05:43:35.436Z,77.59
2016-02-18T05:44:35.438Z,77.59
2016-02-18T05:45:35.441Z,77.22
2016-02-18T05:46:35.430Z,77.03
2016-02-18T05:47:35.432Z,77.03
2016-02-18T05:48:35.435Z,77.03
2016-02-18T05:49:35.437Z,77.59
2016-02-18T05:50:35.440Z,77.22
2016-02-18T05:51:35.442Z,77.69
2016-02-18T05:52:35.445Z,77.4
2016-02-18T05:53:35.417Z,77.4
2016-02-18T05:54:35.420Z,77.31
2016-02-18T05:55:35.423Z,77.97
2016-02-18T05:56:35.409Z,78.16
2016-02-18T05:57:35.396Z,77.88
2016-02-18T05:58:35.430Z,78.16
2016-02-18T05:59:35.417Z,77.78
2016-02-18T06:00:35.467Z,78.64
2016-02-18T06:01:35.500Z,78.16
2016-02-18T06:02:35.457Z,78.35
2016-02-18T06:03:35.490Z,78.26
2016-02-18T06:04:35.431Z,78.83
2016-02-18T06:05:35.452Z,78.16
2016-02-18T06:06:35.455Z,78.35
2016-02-18T06:07:35.380Z,78.64
2016-02-18T06:08:35.414Z,78.16
2016-02-18T06:09:35.370Z,78.26
2016-02-18T06:10:35.387Z,78.16
2016-02-18T06:11:35.375Z,78.45
2016-02-18T06:12:35.379Z,78.26
2016-02-18T06:13:35.381Z,77.97
2016-02-18T06:14:35.352Z,78.45
2016-02-18T06:15:35.354Z,78.16
2016-02-18T06:16:35.389Z,78.26
2016-02-18T06:17:35.344Z,78.07
2016-02-18T06:18:35.362Z,78.16
2016-02-18T06:19:35.381Z,78.64
2016-02-18T06:20:35.337Z,78.16
2016-02-18T06:21:35.340Z,78.26
2016-02-18T06:22:35.327Z,78.07
2016-02-18T06:23:35.330Z,78.07
2016-02-18T06:24:35.332Z,78.16
2016-02-18T06:25:35.335Z,78.16
2016-02-18T06:26:35.337Z,78.16
2016-02-18T06:27:35.355Z,78.35
2016-02-18T06:28:35.312Z,77.97
2016-02-18T06:29:35.314Z,78.07
2016-02-18T06:30:35.317Z,77.64
2016-02-18T06:31:35.304Z,77.92
2016-02-18T06:32:35.197Z,77.88
2016-02-18T06:33:35.309Z,78.02
2016-02-18T06:34:35.328Z,77.92
2016-02-18T06:35:35.299Z,77.92
2016-02-18T06:36:35.302Z,77.92
2016-02-18T06:37:35.305Z,77.92
2016-02-18T06:38:35.292Z,77.64
2016-02-18T06:39:35.294Z,78.02
2016-02-18T06:40:35.282Z,78.2
2016-02-18T06:41:35.285Z,77.97
2016-02-18T06:42:35.287Z,78.2
2016-02-18T06:43:35.274Z,77.83
2016-02-18T06:44:35.276Z,77.83
2016-02-18T06:45:35.295Z,77.83
2016-02-18T06:46:35.266Z,77.5
2016-02-18T06:47:35.270Z,77.88
2016-02-18T06:48:35.272Z,78.02
2016-02-18T06:49:35.259Z,77.83
2016-02-18T06:50:35.261Z,77.88
2016-02-18T06:51:35.280Z,77.88
2016-02-18T06:52:35.251Z,77.78
2016-02-18T06:53:35.253Z,78.02
2016-02-18T06:54:35.241Z,77.83
2016-02-18T06:55:35.244Z,77.64
2016-02-18T06:56:35.247Z,77.92
2016-02-18T06:57:35.233Z,77.92
2016-02-18T06:58:35.236Z,77.83
2016-02-18T06:59:35.239Z,77.64
2016-02-18T07:00:35.225Z,77.54
2016-02-18T07:01:35.228Z,77.45
2016-02-18T07:02:35.230Z,77.35
2016-02-18T07:03:35.219Z,77.54
2016-02-18T07:04:35.221Z,77.73
2016-02-18T07:05:35.224Z,77.83
2016-02-18T07:06:35.226Z,77.92
2016-02-18T07:07:35.213Z,77.64
2016-02-18T07:08:35.216Z,77.54
2016-02-18T07:09:35.203Z,77.45
2016-02-18T07:10:35.206Z,77.25
2016-02-18T07:11:35.193Z,77.35
2016-02-18T07:12:35.180Z,77.25
2016-02-18T07:13:35.182Z,76.87
2016-02-18T07:14:35.185Z,76.68
2016-02-18T07:15:35.173Z,77.16
2016-02-18T07:16:35.190Z,76.97
2016-02-18T07:17:35.381Z,76.5
2016-02-18T07:18:35.164Z,76.87
2016-02-18T07:19:35.183Z,76.5
2016-02-18T07:20:35.170Z,76.21
2016-02-18T07:21:35.203Z,75.93
2016-02-18T07:22:35.192Z,75.74
2016-02-18T07:23:35.178Z,75.74
2016-02-18T07:24:35.150Z,75.84
2016-02-18T07:25:35.153Z,75.93
2016-02-18T07:26:35.155Z,75.93
2016-02-18T07:27:35.142Z,75.36
2016-02-18T07:28:35.144Z,75.45
2016-02-18T07:29:35.132Z,75.55
2016-02-18T07:30:35.135Z,75.45
2016-02-18T07:31:35.137Z,75.64
2016-02-18T07:32:35.140Z,75.84
2016-02-18T07:33:35.143Z,75.45
2016-02-18T07:34:35.145Z,75.17
2016-02-18T07:35:35.116Z,75.84
2016-02-18T07:36:35.119Z,75.64
2016-02-18T07:37:35.121Z,75.55
2016-02-18T07:38:35.110Z,75.74
2016-02-18T07:39:35.112Z,75.55
2016-02-18T07:40:35.115Z,75.93
2016-02-18T07:41:35.102Z,75.64
2016-02-18T07:42:35.104Z,75.74
2016-02-18T07:43:35.138Z,75.36
2016-02-18T07:44:35.094Z,75.55
2016-02-18T07:45:35.096Z,75.74
2016-02-18T07:46:35.131Z,74.69
2016-02-18T07:47:35.101Z,74.79
2016-02-18T07:48:35.104Z,74.88
2016-02-18T07:49:35.093Z,74.69
2016-02-18T07:50:35.095Z,74.13
2016-02-18T07:51:35.098Z,74.13
2016-02-18T07:52:35.084Z,73.75
2016-02-18T07:53:35.072Z,72.64
2016-02-18T07:54:35.105Z,70.84
2016-02-18T07:55:35.077Z,68.89
2016-02-18T07:56:35.063Z,68.6
2016-02-18T07:57:35.067Z,68.41
2016-02-18T07:58:35.054Z,68.23
2016-02-18T07:59:35.056Z,67.21
2016-02-18T08:00:35.059Z,65.69
2016-02-18T08:01:35.046Z,64.59
2016-02-18T08:02:35.064Z,62.31
2016-02-18T08:03:35.082Z,60.35
2016-02-18T08:04:35.116Z,59.39
2016-02-18T08:05:35.120Z,58.47
2016-02-18T08:06:35.074Z,57.81
2016-02-18T08:07:35.062Z,57.33
2016-02-18T08:08:35.050Z,57.71
2016-02-18T08:09:35.052Z,56.85
2016-02-18T08:10:35.055Z,56.22
2016-02-18T08:11:35.057Z,54.89
2016-02-18T08:12:35.076Z,53.46
2016-02-18T08:13:35.062Z,52.53
2016-02-18T08:14:35.081Z,51.97
2016-02-18T08:15:35.068Z,52.34
2016-02-18T08:16:35.243Z,53.2
2016-02-18T08:17:35.073Z,53.11
2016-02-18T08:18:35.060Z,52.63
2016-02-18T08:19:35.063Z,52.06
2016-02-18T08:20:35.066Z,51.49
2016-02-18T08:21:35.084Z,51.01
2016-02-18T08:22:35.087Z,50.73
2016-02-18T08:23:35.090Z,50.35
2016-02-18T08:24:35.076Z,49.96
2016-02-18T08:25:35.078Z,49.99
2016-02-18T08:26:35.081Z,49.04
2016-02-18T08:27:35.100Z,48.56
2016-02-18T08:28:35.087Z,48.94
2016-02-18T08:29:35.089Z,48.27
2016-02-18T08:30:35.109Z,48.47
2016-02-18T08:31:35.111Z,48.37
2016-02-18T08:32:35.114Z,48.66
2016-02-18T08:33:35.117Z,48.75
2016-02-18T08:34:35.103Z,48.37
2016-02-18T08:35:35.122Z,47.92
2016-02-18T08:36:35.109Z,46.87
2016-02-18T08:37:35.127Z,46.78
2016-02-18T08:38:35.130Z,46.49
2016-02-18T08:39:35.132Z,46.78
2016-02-18T08:40:35.135Z,47.8
2016-02-18T08:41:35.138Z,48.85
2016-02-18T08:42:35.140Z,50.15
2016-02-18T08:43:35.143Z,51.49
2016-02-18T08:44:35.146Z,52.51
2016-02-18T08:45:35.149Z,53.46
2016-02-18T08:46:35.168Z,54.29
2016-02-18T08:47:35.154Z,55.52
2016-02-18T08:48:35.173Z,56.35
2016-02-18T08:49:35.175Z,57.3
2016-02-18T08:50:35.193Z,57.97
2016-02-18T08:51:35.196Z,59.08
2016-02-18T08:52:35.167Z,60.03
2016-02-18T08:53:35.186Z,60.88
2016-02-18T08:54:35.188Z,61.36
2016-02-18T08:55:35.191Z,62.18
2016-02-18T08:56:35.179Z,62.37
2016-02-18T08:57:35.181Z,62.75
2016-02-18T08:58:35.184Z,63.42
2016-02-18T08:59:35.203Z,63.51
2016-02-18T09:00:35.205Z,63.89
2016-02-18T09:01:35.192Z,64.08
2016-02-18T09:02:35.195Z,64.27
2016-02-18T09:03:35.197Z,63.98
2016-02-18T09:04:35.200Z,63.79
2016-02-18T09:05:35.186Z,63.89
2016-02-18T09:06:35.190Z,63.79
2016-02-18T09:07:35.192Z,63.42
2016-02-18T09:08:35.195Z,63.23
2016-02-18T09:09:35.198Z,63.98
2016-02-18T09:10:35.200Z,63.6
2016-02-18T09:11:35.202Z,63.42
2016-02-18T09:12:35.205Z,63.51
2016-02-18T09:13:35.208Z,63.32
2016-02-18T09:14:35.196Z,63.23
2016-02-18T09:15:35.198Z,63.6
2016-02-18T09:16:35.201Z,63.32
2016-02-18T09:17:35.188Z,63.42
2016-02-18T09:18:35.191Z,63.79
2016-02-18T09:19:35.193Z,64.08
2016-02-18T09:20:35.212Z,63.51
2016-02-18T09:21:35.199Z,62.66
2016-02-18T09:22:35.201Z,62.66
2016-02-18T09:23:35.204Z,61.99
2016-02-18T09:24:35.207Z,62.08
2016-02-18T09:25:35.194Z,62.08
2016-02-18T09:26:35.197Z,61.23
2016-02-18T09:27:35.199Z,60.79
2016-02-18T09:28:35.203Z,60.31
2016-02-18T09:29:35.189Z,60.31
2016-02-18T09:30:35.192Z,60.5
2016-02-18T09:31:35.195Z,59.93
2016-02-18T09:32:35.197Z,59.46
2016-02-18T09:33:35.200Z,58.32
2016-02-18T09:34:35.187Z,58.13
2016-02-18T09:35:35.189Z,57.94
2016-02-18T09:36:35.192Z,57.59
2016-02-18T09:37:35.194Z,57.11
2016-02-18T09:38:35.197Z,56.35
2016-02-18T09:39:35.200Z,56.45
2016-02-18T09:40:35.188Z,55.21
2016-02-18T09:41:35.191Z,55.4
2016-02-18T09:42:35.193Z,55.5
2016-02-18T09:43:35.196Z,54.83
2016-02-18T09:44:35.199Z,55.21
2016-02-18T09:45:35.185Z,55.21
2016-02-18T09:46:35.188Z,54.74
2016-02-18T09:47:35.206Z,54.26
2016-02-18T09:48:35.193Z,54
2016-02-18T09:49:35.195Z,54.19
2016-02-18T09:50:35.199Z,53.91
2016-02-18T09:51:35.202Z,53.24
2016-02-18T09:52:35.204Z,53.15
2016-02-18T09:53:35.207Z,53.24
2016-02-18T09:54:35.210Z,53.72
2016-02-18T09:55:35.212Z,53.81
2016-02-18T09:56:35.215Z,53.69
2016-02-18T09:57:35.217Z,53.31
2016-02-18T09:58:35.204Z,53.78
2016-02-18T09:59:35.206Z,53.5
2016-02-18T10:00:35.209Z,53.69
2016-02-18T10:01:35.213Z,53.5
2016-02-18T10:02:35.215Z,53.97
2016-02-18T10:03:35.218Z,54.55
2016-02-18T10:04:35.205Z,54.26
2016-02-18T10:05:35.208Z,54.26
2016-02-18T10:06:35.225Z,54.26
2016-02-18T10:07:35.213Z,53.41
2016-02-18T10:08:35.216Z,53.22
2016-02-18T10:09:35.218Z,53.69
2016-02-18T10:10:35.221Z,53.69
2016-02-18T10:11:35.224Z,53.69
2016-02-18T10:12:35.211Z,53.69
2016-02-18T10:13:35.230Z,53.12
2016-02-18T10:14:35.232Z,53.12
2016-02-18T10:15:35.219Z,53.34
2016-02-18T10:16:35.221Z,54.17
2016-02-18T10:17:35.224Z,53.78
2016-02-18T10:18:35.243Z,53.88
2016-02-18T10:19:35.230Z,54.07
2016-02-18T10:20:35.233Z,53.88
2016-02-18T10:21:35.220Z,54.45
2016-02-18T10:22:35.222Z,54.74
2016-02-18T10:23:34.491Z,54.64
2016-02-18T10:24:35.228Z,54.74
2016-02-18T10:25:35.246Z,54.45
2016-02-18T10:26:35.233Z,54.74
2016-02-18T10:27:35.220Z,53.5
2016-02-18T10:28:35.223Z,53.41
2016-02-18T10:29:35.225Z,54.26
2016-02-18T10:30:35.228Z,54.36
2016-02-18T10:31:35.247Z,53.5
2016-02-18T10:32:35.234Z,53.5
2016-02-18T10:33:35.236Z,53.69
2016-02-18T10:34:35.239Z,53.5
2016-02-18T10:35:35.242Z,53.03
2016-02-18T10:36:35.245Z,53.72
2016-02-18T10:37:35.231Z,53.69
2016-02-18T10:38:35.250Z,53.03
2016-02-18T10:39:35.236Z,53.05
2016-02-18T10:40:35.255Z,52.96
2016-02-18T10:41:35.241Z,52.58
2016-02-18T10:42:35.245Z,52.67
2016-02-18T10:43:35.247Z,52.48
2016-02-18T10:44:35.235Z,52.1
2016-02-18T10:45:35.253Z,52.01
2016-02-18T10:46:35.240Z,51.91
2016-02-18T10:47:35.243Z,52.48
2016-02-18T10:48:35.245Z,52.01
2016-02-18T10:49:35.263Z,51.91
2016-02-18T10:50:35.251Z,52.29
2016-02-18T10:51:35.253Z,51.72
2016-02-18T10:52:35.256Z,51.34
2016-02-18T10:53:35.259Z,51.72
2016-02-18T10:54:35.293Z,51.25
2016-02-18T10:55:35.265Z,51.72
2016-02-18T10:56:35.267Z,52.29
2016-02-18T10:57:35.270Z,51.91
2016-02-18T10:58:35.272Z,52.29
2016-02-18T10:59:35.259Z,51.25
2016-02-18T11:00:35.261Z,51.15
2016-02-18T11:01:35.265Z,51.91
2016-02-18T11:02:35.268Z,51.53
2016-02-18T11:03:35.270Z,51.62
2016-02-18T11:04:35.273Z,51.34
2016-02-18T11:05:35.276Z,51.43
2016-02-18T11:06:35.262Z,50.96
2016-02-18T11:07:35.265Z,51.15
2016-02-18T11:08:35.258Z,51.82
2016-02-18T11:09:35.249Z,52.2
2016-02-18T11:10:35.255Z,52.39
2016-02-18T11:11:35.230Z,52.01
2016-02-18T11:12:35.222Z,51.53
2016-02-18T11:13:35.218Z,51.62
2016-02-18T11:14:35.217Z,51.43
2016-02-18T11:15:35.215Z,52.1
2016-02-18T11:16:35.198Z,51.53
2016-02-18T11:17:35.197Z,50.87
2016-02-18T11:18:35.198Z,51.06
2016-02-18T11:19:35.198Z,50.58
2016-02-18T11:20:35.199Z,50.48
2016-02-18T11:21:35.201Z,50.29
2016-02-18T11:22:35.202Z,50.29
2016-02-18T11:23:35.188Z,50.29
2016-02-18T11:24:35.205Z,50.1
2016-02-18T11:25:35.207Z,50.29
2016-02-18T11:26:35.210Z,50.2
2016-02-18T11:27:35.195Z,50.29
2016-02-18T11:28:35.198Z,50.1
2016-02-18T11:29:35.200Z,50.58
2016-02-18T11:30:35.202Z,50.48
2016-02-18T11:31:35.205Z,50.48
2016-02-18T11:32:35.207Z,50.87
2016-02-18T11:33:35.210Z,50.96
2016-02-18T11:34:35.212Z,51.25
2016-02-18T11:35:35.215Z,51.41
2016-02-18T11:36:35.202Z,51.7
2016-02-18T11:37:35.220Z,51.62
2016-02-18T11:38:35.208Z,51.62
2016-02-18T11:39:35.211Z,51.53
2016-02-18T11:40:35.214Z,50.87
2016-02-18T11:41:35.216Z,50.29
2016-02-18T11:42:35.062Z,46.68
2016-02-18T11:43:35.221Z,46.49
2016-02-18T11:44:35.224Z,46.4
2016-02-18T11:45:35.242Z,46.11
2016-02-18T11:46:35.229Z,45.92
2016-02-18T11:47:35.217Z,46.49
2016-02-18T11:48:35.219Z,46.78
2016-02-18T11:49:35.237Z,47.34
2016-02-18T11:50:35.241Z,46.88
2016-02-18T11:51:35.227Z,46.4
2016-02-18T11:52:35.136Z,45.64
2016-02-18T11:53:35.232Z,45.07
2016-02-18T11:54:35.235Z,45.16
2016-02-18T11:55:35.238Z,44.97
2016-02-18T11:56:35.240Z,44.61
2016-02-18T11:57:35.243Z,44.33
2016-02-18T11:58:35.230Z,44.61
2016-02-18T11:59:35.233Z,43.95
2016-02-18T12:00:35.235Z,43.09
2016-02-18T12:01:35.238Z,43.09
2016-02-18T12:02:35.240Z,42.61
2016-02-18T12:03:35.243Z,41
2016-02-18T12:04:35.246Z,40.52
2016-02-18T12:05:35.248Z,41.28
2016-02-18T12:06:35.268Z,41.09
2016-02-18T12:07:35.254Z,41.28
2016-02-18T12:08:35.242Z,41
2016-02-18T12:09:35.259Z,40.14
2016-02-18T12:10:35.262Z,40.33
2016-02-18T12:11:35.265Z,40.43
2016-02-18T12:12:35.268Z,40.71
2016-02-18T12:13:35.270Z,41.09
2016-02-18T12:14:35.273Z,40.9
2016-02-18T12:15:35.275Z,41
2016-02-18T12:16:35.263Z,41.4
2016-02-18T12:17:35.266Z,41.02
2016-02-18T12:18:35.284Z,40.54
2016-02-18T12:19:35.271Z,39.5
2016-02-18T12:20:34.539Z,39.02
2016-02-18T12:21:35.277Z,38.92
2016-02-18T12:22:34.529Z,39.12
2016-02-18T12:23:35.282Z,39.02
2016-02-18T12:24:35.284Z,39.59
2016-02-18T12:25:35.288Z,39.5
2016-02-18T12:26:35.290Z,39.87
2016-02-18T12:27:35.293Z,40.45
2016-02-18T12:28:35.311Z,40.73
2016-02-18T12:29:35.298Z,40.83
2016-02-18T12:30:35.316Z,40.45
2016-02-18T12:31:35.303Z,41.11
2016-02-18T12:32:35.306Z,40.54
2016-02-18T12:33:35.309Z,40.16
2016-02-18T12:34:35.312Z,40.45
2016-02-18T12:35:35.315Z,40.45
2016-02-18T12:36:35.317Z,39.87
2016-02-18T12:37:35.304Z,40.54
2016-02-18T12:38:35.306Z,39.59
2016-02-18T12:39:35.325Z,39.21
2016-02-18T12:40:35.312Z,39.4
2016-02-18T12:41:35.346Z,39.02
2016-02-18T12:42:35.317Z,39.5
2016-02-18T12:43:35.335Z,39.69
2016-02-18T12:44:35.339Z,39.48
2016-02-18T12:45:35.326Z,40.43
2016-02-18T12:46:35.344Z,41.3
2016-02-18T12:47:35.347Z,41.76
2016-02-18T12:48:35.349Z,41.66
2016-02-18T12:49:35.352Z,41.76
2016-02-18T12:50:35.338Z,42.24
2016-02-18T12:51:35.357Z,42.14
2016-02-18T12:52:35.345Z,42.04
2016-02-18T12:53:35.347Z,42.25
2016-02-18T12:54:35.350Z,42.35
2016-02-18T12:55:35.352Z,41.78